Time;durP1;ratioP1;P1;durP2;ratioP2;P2;SDS_P1;SDS_P2;PMS_P1;PMS_P2;Temp;Humidity;BMP_temperature;BMP_pressure;BME280_temperature;BME280_humidity;BME280_pressure;Samples;Min_cycle;Max_cycle;Signal;HPM_P1;HPM_P2
2023/03/27 00:00:19;;;;;;;4.60;0.97;;;5.20;49.70;;;;;;5020725;28;46557;-67
2023/03/27 00:02:48;;;;;;;3.63;1.00;;;5.20;49.60;;;;;;5021215;28;46435;-66
2023/03/27 00:05:15;;;;;;;1.83;1.00;;;5.20;49.70;;;;;;5022053;28;45915;-66
2023/03/27 00:07:41;;;;;;;41.17;18.97;;;5.20;49.80;;;;;;5022512;28;46465;-66
2023/03/27 00:10:11;;;;;;;2.23;1.60;;;5.20;49.70;;;;;;5024529;28;45924;-67
2023/03/27 00:12:37;;;;;;;1.40;0.90;;;5.50;49.60;;;;;;5022162;28;46506;-67
2023/03/27 00:15:04;;;;;;;2.37;1.13;;;5.40;48.90;;;;;;5015581;28;46887;-67
2023/03/27 00:17:29;;;;;;;1.93;1.03;;;5.60;48.80;;;;;;5020068;28;46476;-67
2023/03/27 00:19:55;;;;;;;1.83;0.90;;;5.70;48.90;;;;;;5019105;28;46648;-65
2023/03/27 00:22:20;;;;;;;3.40;1.30;;;5.80;49.00;;;;;;5020104;28;45919;-66
2023/03/27 00:24:47;;;;;;;2.27;0.80;;;5.90;49.10;;;;;;5018995;28;46683;-66
2023/03/27 00:27:13;;;;;;;1.90;1.00;;;5.90;49.10;;;;;;5020122;28;46505;-66
2023/03/27 00:29:38;;;;;;;1.20;0.80;;;6.00;49.20;;;;;;5019593;28;46809;-66
2023/03/27 00:32:04;;;;;;;3.13;0.90;;;6.10;49.30;;;;;;5020627;28;46505;-66
2023/03/27 00:34:30;;;;;;;2.57;0.90;;;6.10;49.30;;;;;;5018854;28;46572;-66
2023/03/27 00:36:56;;;;;;;2.23;1.00;;;6.10;49.40;;;;;;5018895;28;46676;-66
2023/03/27 00:39:22;;;;;;;1.40;0.90;;;6.10;49.30;;;;;;5019073;28;46663;-66
2023/03/27 00:41:48;;;;;;;4.10;1.10;;;6.20;49.40;;;;;;5019092;28;46918;-65
2023/03/27 00:44:41;;;;;;;3.23;1.00;;;6.20;49.40;;;;;;5021928;28;46463;-67
2023/03/27 00:47:11;;;;;;;3.77;0.90;;;6.20;49.30;;;;;;5023226;28;46085;-67
2023/03/27 00:49:37;;;;;;;3.07;1.10;;;6.20;49.40;;;;;;5022616;28;46707;-67
2023/03/27 00:52:05;;;;;;;3.13;1.20;;;6.20;49.40;;;;;;5022160;28;46497;-67
2023/03/27 00:54:37;;;;;;;4.80;1.30;;;6.20;49.40;;;;;;5022475;28;46764;-67
2023/03/27 00:57:05;;;;;;;1.67;1.10;;;6.20;49.40;;;;;;5022503;28;46480;-67
2023/03/27 00:59:34;;;;;;;4.50;0.97;;;6.10;49.30;;;;;;5021276;28;46611;-67
2023/03/27 01:02:02;;;;;;;2.57;1.40;;;6.10;50.00;;;;;;5022666;28;46477;-67
2023/03/27 01:04:30;;;;;;;2.03;1.10;;;6.10;51.30;;;;;;5021613;28;46448;-66
2023/03/27 01:06:57;;;;;;;3.20;1.30;;;6.10;50.40;;;;;;5021018;28;45941;-66
2023/03/27 01:09:25;;;;;;;2.70;1.30;;;6.00;50.40;;;;;;5022335;28;46583;-66
2023/03/27 01:12:06;;;;;;;1.73;1.30;;;6.00;50.40;;;;;;5021745;28;46523;-67
2023/03/27 01:15:04;;;;;;;1.90;1.20;;;6.00;50.60;;;;;;5021965;28;46576;-66
2023/03/27 01:17:42;;;;;;;2.00;1.30;;;6.00;50.70;;;;;;5021663;28;46448;-66
2023/03/27 01:20:17;;;;;;;1.70;1.27;;;6.00;50.70;;;;;;5021497;28;46744;-66
2023/03/27 01:23:10;;;;;;;3.27;1.30;;;6.00;51.00;;;;;;5021717;28;46284;-66
2023/03/27 01:25:36;;;;;;;2.40;1.70;;;5.90;51.10;;;;;;5022137;28;46492;-66
2023/03/27 01:28:31;;;;;;;8.10;1.50;;;5.80;51.50;;;;;;5021735;28;46604;-67
2023/03/27 01:31:24;;;;;;;3.27;1.27;;;5.80;51.60;;;;;;5023371;28;46465;-67
2023/03/27 01:34:09;;;;;;;2.60;1.30;;;5.80;51.60;;;;;;5028322;28;46561;-67
2023/03/27 01:36:59;;;;;;;2.20;1.37;;;5.80;51.50;;;;;;5021825;28;46444;-67
2023/03/27 01:39:25;;;;;;;2.60;1.10;;;5.80;51.60;;;;;;5021252;28;46361;-67
2023/03/27 01:42:17;;;;;;;2.47;1.70;;;5.90;51.50;;;;;;5022315;28;46983;-67
2023/03/27 01:45:00;;;;;;;2.10;1.30;;;5.90;51.40;;;;;;5020697;28;47127;-67
2023/03/27 01:48:02;;;;;;;2.03;1.37;;;5.90;51.20;;;;;;5020490;28;46524;-67
2023/03/27 01:50:52;;;;;;;2.40;1.70;;;5.90;51.60;;;;;;5021139;28;46658;-66
2023/03/27 01:53:29;;;;;;;4.70;1.40;;;5.90;51.40;;;;;;5021118;28;45961;-67
2023/03/27 01:56:02;;;;;;;2.60;1.30;;;5.90;51.40;;;;;;5019378;28;46504;-67
2023/03/27 01:58:36;;;;;;;2.97;1.50;;;6.00;51.40;;;;;;5021677;28;46545;-66
2023/03/27 02:01:03;;;;;;;2.17;1.33;;;6.00;51.40;;;;;;5020111;28;46589;-67
2023/03/27 02:03:40;;;;;;;1.73;1.30;;;5.90;51.70;;;;;;5022727;28;46504;-67
2023/03/27 02:06:15;;;;;;;1.50;1.23;;;6.00;51.90;;;;;;5021379;28;46445;-67
2023/03/27 02:09:03;;;;;;;2.87;1.30;;;5.90;53.20;;;;;;5021277;28;46538;-67
2023/03/27 02:11:33;;;;;;;2.53;1.50;;;5.70;56.30;;;;;;5018912;28;46465;-66
2023/03/27 02:14:12;;;;;;;2.30;1.40;;;5.60;59.50;;;;;;5019816;28;46616;-67
2023/03/27 02:16:44;;;;;;;2.83;1.70;;;5.50;61.50;;;;;;5020283;28;46723;-67
2023/03/27 02:19:19;;;;;;;6.97;1.73;;;5.50;62.60;;;;;;5020885;28;45947;-67
2023/03/27 02:21:47;;;;;;;1.80;1.43;;;5.60;61.80;;;;;;5021679;28;46559;-67
2023/03/27 02:24:15;;;;;;;2.23;1.60;;;5.60;61.80;;;;;;5020496;28;46702;-67
2023/03/27 02:26:41;;;;;;;3.03;2.00;;;5.60;61.90;;;;;;5020245;28;46480;-67
2023/03/27 02:29:30;;;;;;;2.20;1.90;;;5.70;61.70;;;;;;5020310;28;46434;-67
2023/03/27 02:32:07;;;;;;;3.73;1.80;;;5.80;61.50;;;;;;5019825;28;46763;-67
2023/03/27 02:34:57;;;;;;;2.50;1.80;;;5.80;60.90;;;;;;5020571;28;46275;-67
2023/03/27 02:37:41;;;;;;;2.50;1.93;;;5.80;61.10;;;;;;5021312;28;46728;-67
2023/03/27 02:40:28;;;;;;;2.20;1.83;;;5.80;61.10;;;;;;5020933;28;46509;-66
2023/03/27 02:43:08;;;;;;;2.27;1.40;;;5.80;61.80;;;;;;5019891;28;46471;-66
2023/03/27 02:46:07;;;;;;;3.60;1.50;;;5.70;63.00;;;;;;5021088;28;46583;-67
2023/03/27 02:48:39;;;;;;;2.20;1.60;;;5.70;64.20;;;;;;5020497;28;46478;-67
2023/03/27 02:51:11;;;;;;;3.17;1.80;;;5.60;65.00;;;;;;5020602;28;46962;-67
2023/03/27 02:53:59;;;;;;;2.40;1.53;;;5.60;65.90;;;;;;5020786;28;46484;-66
2023/03/27 02:56:30;;;;;;;13.83;1.77;;;5.60;66.90;;;;;;5020194;28;46439;-66
2023/03/27 02:59:04;;;;;;;2.47;1.50;;;5.60;67.20;;;;;;5020563;28;46685;-67
2023/03/27 03:01:31;;;;;;;3.47;1.70;;;5.60;67.80;;;;;;5021605;28;47518;-67
2023/03/27 03:04:09;;;;;;;2.67;1.60;;;5.50;69.30;;;;;;5020253;28;46434;-67
2023/03/27 03:06:35;;;;;;;4.63;1.70;;;5.50;69.80;;;;;;5021643;28;46457;-67
2023/03/27 03:09:05;;;;;;;4.17;1.47;;;5.50;70.20;;;;;;5020864;28;47882;-67
2023/03/27 03:11:36;;;;;;;2.37;1.53;;;5.50;70.20;;;;;;5021090;28;45931;-67
2023/03/27 03:14:01;;;;;;;3.30;1.63;;;5.50;70.80;;;;;;5019681;28;46495;-67
2023/03/27 03:16:28;;;;;;;1.87;1.20;;;5.40;71.30;;;;;;5020648;28;46631;-66
2023/03/27 03:18:55;;;;;;;1.80;1.20;;;5.40;72.30;;;;;;5020972;28;46824;-67
2023/03/27 03:21:20;;;;;;;5.53;1.40;;;5.30;72.90;;;;;;5022899;28;46713;-67
2023/03/27 03:23:46;;;;;;;1.50;1.03;;;5.30;73.90;;;;;;5025561;28;45821;-67
2023/03/27 03:26:12;;;;;;;1.90;1.20;;;5.20;73.80;;;;;;5021292;28;46565;-67
2023/03/27 03:28:38;;;;;;;2.30;1.30;;;5.20;73.90;;;;;;5023502;28;46625;-67
2023/03/27 03:31:04;;;;;;;1.70;1.00;;;5.20;73.90;;;;;;5025334;28;46633;-67
2023/03/27 03:33:30;;;;;;;2.40;1.03;;;5.20;73.90;;;;;;5022736;28;46533;-67
2023/03/27 03:35:59;;;;;;;1.50;1.10;;;5.20;74.10;;;;;;5019470;28;46500;-68
2023/03/27 03:38:26;;;;;;;1.43;1.00;;;5.20;74.40;;;;;;5019650;28;47280;-68
2023/03/27 03:40:53;;;;;;;2.00;1.40;;;5.20;74.20;;;;;;5019296;28;46485;-67
2023/03/27 03:43:23;;;;;;;2.20;1.40;;;5.20;74.40;;;;;;5019521;28;46521;-68
2023/03/27 03:45:49;;;;;;;2.10;1.40;;;5.30;74.40;;;;;;5018958;28;46243;-68
2023/03/27 03:48:16;;;;;;;2.20;1.30;;;5.30;74.00;;;;;;5020011;28;46976;-67
2023/03/27 03:50:44;;;;;;;1.83;1.03;;;5.40;74.00;;;;;;5019351;28;45917;-67
2023/03/27 03:53:10;;;;;;;1.57;1.00;;;5.40;74.00;;;;;;5019600;28;46470;-67
2023/03/27 03:55:36;;;;;;;5.40;0.80;;;5.40;74.00;;;;;;5019723;28;46448;-67
2023/03/27 03:58:03;;;;;;;1.20;0.80;;;5.40;74.00;;;;;;5019350;28;46414;-68
2023/03/27 04:00:28;;;;;;;1.10;0.70;;;5.00;75.20;;;;;;5020209;28;46492;-67
2023/03/27 04:02:54;;;;;;;1.00;0.80;;;4.80;76.80;;;;;;5020449;28;46669;-67
2023/03/27 04:05:20;;;;;;;1.00;0.60;;;4.60;77.40;;;;;;5019702;28;45914;-67
2023/03/27 04:07:46;;;;;;;1.00;0.70;;;4.60;78.00;;;;;;5019754;28;46244;-68
2023/03/27 04:10:14;;;;;;;1.07;0.73;;;4.60;78.10;;;;;;5019596;28;46478;-67
2023/03/27 04:12:47;;;;;;;1.10;0.73;;;4.60;78.20;;;;;;5019433;28;47485;-67
2023/03/27 04:15:14;;;;;;;2.37;0.80;;;4.50;78.50;;;;;;5019668;28;46654;-67
2023/03/27 04:17:41;;;;;;;1.30;0.80;;;4.60;78.50;;;;;;5019145;28;47083;-67
2023/03/27 04:20:06;;;;;;;1.20;0.70;;;4.60;78.00;;;;;;5022331;28;46569;-67
2023/03/27 04:22:36;;;;;;;1.10;0.60;;;4.70;77.70;;;;;;5023233;28;46653;-67
2023/03/27 04:25:06;;;;;;;1.20;0.70;;;4.80;77.30;;;;;;5022504;28;46269;-68
2023/03/27 04:27:34;;;;;;;1.63;0.90;;;4.80;77.00;;;;;;5022550;28;46470;-68
2023/03/27 04:30:01;;;;;;;1.00;0.70;;;4.70;77.20;;;;;;5022561;28;46996;-68
2023/03/27 04:32:27;;;;;;;1.00;0.70;;;4.60;77.60;;;;;;5023247;28;46820;-67
2023/03/27 04:34:55;;;;;;;1.00;0.70;;;4.40;78.30;;;;;;5022447;28;46794;-67
2023/03/27 04:37:22;;;;;;;1.10;0.70;;;4.40;78.50;;;;;;5022812;28;47238;-67
2023/03/27 04:39:47;;;;;;;1.67;0.70;;;4.40;78.20;;;;;;5022758;28;46524;-67
2023/03/27 04:42:13;;;;;;;1.20;0.70;;;4.40;78.10;;;;;;5023051;28;46497;-67
2023/03/27 04:44:40;;;;;;;2.00;0.90;;;4.40;78.10;;;;;;5023031;28;46490;-67
2023/03/27 04:47:09;;;;;;;1.97;0.60;;;4.30;78.00;;;;;;5021725;28;46531;-67
2023/03/27 04:49:39;;;;;;;1.77;0.70;;;4.10;78.20;;;;;;5022442;28;46969;-68
2023/03/27 04:52:06;;;;;;;1.10;0.70;;;4.20;78.20;;;;;;5022170;28;46539;-68
2023/03/27 04:54:32;;;;;;;1.60;1.10;;;4.10;78.20;;;;;;5022136;28;46631;-67
2023/03/27 04:57:00;;;;;;;1.70;0.73;;;4.00;78.40;;;;;;5021918;28;46509;-67
2023/03/27 04:59:30;;;;;;;1.57;0.83;;;3.90;78.70;;;;;;5022957;28;46484;-67
2023/03/27 05:02:00;;;;;;;1.67;0.90;;;3.80;78.70;;;;;;5022524;28;46744;-67
2023/03/27 05:04:27;;;;;;;1.30;0.80;;;3.80;78.70;;;;;;5022433;28;46658;-67
2023/03/27 05:06:54;;;;;;;1.20;0.77;;;3.70;78.70;;;;;;5020962;28;48280;-66
2023/03/27 05:09:20;;;;;;;1.50;0.90;;;3.70;78.80;;;;;;5022313;28;46493;-67
2023/03/27 05:11:48;;;;;;;1.40;1.13;;;3.70;78.70;;;;;;5022129;28;46786;-67
2023/03/27 05:14:21;;;;;;;1.10;0.80;;;3.70;79.10;;;;;;5022535;28;46539;-68
2023/03/27 05:16:49;;;;;;;1.47;0.87;;;3.70;78.70;;;;;;5021235;28;46512;-67
2023/03/27 05:19:18;;;;;;;1.58;1.00;;;3.50;79.40;;;;;;5022498;28;46391;-67
2023/03/27 05:21:45;;;;;;;1.77;0.80;;;3.60;79.70;;;;;;5021292;28;46456;-68
2023/03/27 05:24:10;;;;;;;2.60;1.20;;;3.50;79.80;;;;;;5022195;28;46533;-68
2023/03/27 05:26:37;;;;;;;1.30;0.87;;;3.60;79.80;;;;;;5021010;28;46682;-67
2023/03/27 05:29:04;;;;;;;0.90;0.60;;;3.60;79.40;;;;;;5019683;28;46699;-67
2023/03/27 05:31:31;;;;;;;1.20;0.70;;;3.60;79.00;;;;;;5028763;28;46695;-67
2023/03/27 05:33:57;;;;;;;1.00;0.70;;;3.30;79.50;;;;;;5021759;28;46481;-67
2023/03/27 05:36:25;;;;;;;1.00;0.60;;;3.40;79.70;;;;;;5021928;28;47056;-66
2023/03/27 05:38:52;;;;;;;1.00;0.60;;;3.20;80.10;;;;;;5022374;28;46492;-67
2023/03/27 05:41:19;;;;;;;1.53;0.60;;;3.10;80.50;;;;;;5022225;28;46561;-67
2023/03/27 05:43:45;;;;;;;1.00;0.60;;;3.10;80.80;;;;;;5021468;28;46500;-68
2023/03/27 05:46:10;;;;;;;1.00;0.53;;;3.10;80.50;;;;;;5022041;28;46576;-68
2023/03/27 05:48:37;;;;;;;0.90;0.50;;;2.90;80.90;;;;;;5021759;28;46696;-68
2023/03/27 05:51:08;;;;;;;0.90;0.60;;;2.80;81.20;;;;;;5022299;28;46561;-68
2023/03/27 05:53:35;;;;;;;2.00;0.70;;;2.90;80.90;;;;;;5022294;28;46845;-68
2023/03/27 05:56:01;;;;;;;0.90;0.60;;;3.00;80.70;;;;;;5020735;28;47107;-68
2023/03/27 05:58:27;;;;;;;1.00;0.60;;;2.90;80.50;;;;;;5021843;28;46583;-69
2023/03/27 06:00:53;;;;;;;0.90;0.60;;;2.90;80.50;;;;;;5020975;28;46629;-67
2023/03/27 06:03:19;;;;;;;0.83;0.57;;;2.90;80.50;;;;;;5018178;28;46802;-66
2023/03/27 06:05:45;;;;;;;1.10;0.70;;;3.00;80.40;;;;;;5019261;28;46504;-65
2023/03/27 06:08:11;;;;;;;1.48;0.80;;;3.00;80.40;;;;;;5020373;28;46599;-65
2023/03/27 06:10:39;;;;;;;1.07;0.70;;;3.00;80.50;;;;;;5019349;28;47065;-67
2023/03/27 06:13:08;;;;;;;1.00;0.60;;;3.10;80.20;;;;;;5020963;28;46567;-66
2023/03/27 06:15:37;;;;;;;1.27;0.70;;;3.20;79.90;;;;;;5019086;28;46636;-65
2023/03/27 06:18:03;;;;;;;1.55;0.80;;;3.30;79.50;;;;;;5019820;28;46555;-67
2023/03/27 06:20:28;;;;;;;1.38;0.80;;;3.30;79.40;;;;;;5020838;28;46461;-67
2023/03/27 06:22:58;;;;;;;0.90;0.60;;;3.10;79.90;;;;;;5020611;28;46567;-67
2023/03/27 06:25:25;;;;;;;2.30;0.60;;;3.00;80.20;;;;;;5019924;28;46510;-65
2023/03/27 06:27:52;;;;;;;1.00;0.60;;;2.90;80.40;;;;;;5019909;28;46489;-69
2023/03/27 06:30:21;;;;;;;0.95;0.60;;;2.80;80.50;;;;;;5020995;28;46430;-67
2023/03/27 06:32:49;;;;;;;0.90;0.60;;;2.70;81.00;;;;;;5019942;28;46456;-64
2023/03/27 06:35:17;;;;;;;1.98;0.60;;;2.80;80.50;;;;;;5016068;28;46527;-67
2023/03/27 06:37:45;;;;;;;1.00;0.60;;;2.80;80.20;;;;;;5019529;28;46539;-67
2023/03/27 06:40:21;;;;;;;0.90;0.60;;;2.70;80.30;;;;;;5023833;28;46583;-66
2023/03/27 06:43:04;;;;;;;1.55;0.70;;;2.60;80.30;;;;;;5033753;28;46647;-64
2023/03/27 06:45:45;;;;;;;0.80;0.60;;;2.60;80.30;;;;;;5027896;28;46649;-64
2023/03/27 06:48:12;;;;;;;0.90;0.60;;;2.50;80.20;;;;;;5020594;28;47279;-67
2023/03/27 06:50:38;;;;;;;1.02;0.63;;;2.50;80.30;;;;;;5024880;28;46687;-67
2023/03/27 06:53:04;;;;;;;1.00;0.60;;;2.60;80.10;;;;;;5022479;28;46596;-68
2023/03/27 06:55:32;;;;;;;0.80;0.60;;;2.60;80.00;;;;;;5019442;28;46549;-65
2023/03/27 06:58:00;;;;;;;0.90;0.70;;;2.60;79.90;;;;;;5017961;28;46623;-67
2023/03/27 07:00:29;;;;;;;1.10;0.73;;;2.50;80.20;;;;;;5019171;28;46556;-65
2023/03/27 07:02:57;;;;;;;1.50;0.60;;;2.60;80.20;;;;;;5019874;28;46562;-66
2023/03/27 07:05:25;;;;;;;1.10;0.80;;;2.70;80.10;;;;;;5021369;28;46429;-64
2023/03/27 07:07:51;;;;;;;1.63;0.85;;;2.70;80.00;;;;;;5024586;28;46561;-67
2023/03/27 07:10:17;;;;;;;2.25;0.90;;;2.70;80.10;;;;;;5019496;28;47487;-64
2023/03/27 07:12:50;;;;;;;1.90;1.30;;;2.80;79.80;;;;;;5021221;28;46727;-66
2023/03/27 07:15:17;;;;;;;1.48;1.20;;;2.70;80.00;;;;;;5019607;28;46568;-66
2023/03/27 07:17:43;;;;;;;1.30;1.20;;;2.80;80.00;;;;;;5015222;28;46535;-65
2023/03/27 07:20:12;;;;;;;1.73;1.15;;;2.70;80.10;;;;;;5022055;28;45937;-65
2023/03/27 07:22:41;;;;;;;3.00;1.50;;;2.70;80.40;;;;;;5018628;28;46540;-64
2023/03/27 07:25:08;;;;;;;2.53;1.53;;;2.70;80.60;;;;;;5018551;28;47124;-65
2023/03/27 07:27:34;;;;;;;5.88;1.90;;;2.70;80.50;;;;;;5019843;28;46445;-63
2023/03/27 07:30:00;;;;;;;2.33;1.90;;;2.70;80.60;;;;;;5020613;28;46545;-65
2023/03/27 07:32:28;;;;;;;4.27;2.20;;;2.70;80.70;;;;;;5019773;28;46649;-65
2023/03/27 07:34:55;;;;;;;3.00;2.30;;;2.60;80.90;;;;;;5018892;28;47631;-66
2023/03/27 07:37:22;;;;;;;6.72;2.63;;;2.70;80.80;;;;;;5019543;28;46654;-65
2023/03/27 07:39:48;;;;;;;5.00;2.90;;;2.80;80.70;;;;;;5020493;28;46350;-65
2023/03/27 07:42:13;;;;;;;8.73;3.45;;;2.70;80.60;;;;;;5019758;28;46167;-64
2023/03/27 07:44:39;;;;;;;7.93;2.70;;;2.60;81.00;;;;;;5018532;28;47325;-63
2023/03/27 07:47:05;;;;;;;6.70;3.93;;;2.50;81.30;;;;;;5015602;28;46599;-64
2023/03/27 07:49:31;;;;;;;7.95;3.63;;;2.60;81.40;;;;;;5019522;28;46503;-65
2023/03/27 07:51:57;;;;;;;9.60;4.20;;;2.70;81.10;;;;;;5018595;28;46608;-64
2023/03/27 07:54:23;;;;;;;5.73;3.60;;;2.80;81.40;;;;;;5021049;28;46529;-66
2023/03/27 07:56:49;;;;;;;13.93;4.68;;;2.60;81.00;;;;;;5021291;28;46600;-65
2023/03/27 07:59:19;;;;;;;10.23;4.47;;;2.80;81.50;;;;;;5021551;28;46351;-65
2023/03/27 08:01:45;;;;;;;9.70;4.40;;;2.70;81.10;;;;;;5017892;28;45975;-65
2023/03/27 08:04:10;;;;;;;7.40;3.67;;;2.70;80.90;;;;;;5018756;28;47114;-65
2023/03/27 08:06:36;;;;;;;16.90;4.57;;;2.70;80.70;;;;;;5021230;28;46897;-65
2023/03/27 08:09:04;;;;;;;15.50;4.53;;;2.60;80.80;;;;;;5021315;28;46530;-65
2023/03/27 08:11:29;;;;;;;7.87;3.80;;;2.60;80.70;;;;;;5021718;28;46123;-64
2023/03/27 08:13:55;;;;;;;5.30;3.20;;;2.60;80.50;;;;;;5021297;28;46510;-67
2023/03/27 08:16:23;;;;;;;10.00;5.10;;;2.50;80.50;;;;;;5021481;28;46489;-64
2023/03/27 08:18:49;;;;;;;14.48;4.88;;;2.70;80.60;;;;;;5020542;28;46658;-63
2023/03/27 08:21:15;;;;;;;14.83;4.57;;;2.80;80.10;;;;;;5021364;28;46739;-64
2023/03/27 08:23:41;;;;;;;7.80;4.23;;;2.90;79.80;;;;;;5019440;28;46598;-64
2023/03/27 08:26:07;;;;;;;21.23;4.68;;;2.80;79.70;;;;;;5019916;28;46424;-65
2023/03/27 08:28:35;;;;;;;5.72;3.85;;;2.70;79.80;;;;;;5022403;28;46596;-65
2023/03/27 08:31:08;;;;;;;25.27;4.33;;;2.70;80.00;;;;;;5027475;28;46495;-63
2023/03/27 08:33:35;;;;;;;13.13;4.78;;;2.70;79.60;;;;;;5022844;28;46484;-67
2023/03/27 08:36:01;;;;;;;7.13;3.97;;;2.80;79.80;;;;;;5022382;28;46481;-66
2023/03/27 08:38:31;;;;;;;11.87;3.97;;;2.80;79.40;;;;;;5021469;28;46614;-63
2023/03/27 08:40:58;;;;;;;14.60;4.27;;;2.70;79.40;;;;;;5020783;28;46642;-66
2023/03/27 08:43:40;;;;;;;15.93;5.38;;;2.90;79.00;;;;;;5022186;28;46567;-64
2023/03/27 08:46:17;;;;;;;33.08;10.07;;;3.20;78.50;;;;;;5031025;28;46825;-65
2023/03/27 08:48:45;;;;;;;11.38;5.70;;;3.40;77.90;;;;;;5026288;28;45872;-65
2023/03/27 08:51:23;;;;;;;10.17;5.73;;;3.40;77.80;;;;;;5025236;28;46597;-65
2023/03/27 08:54:15;;;;;;;13.48;5.50;;;3.40;77.70;;;;;;5023179;28;46916;-65
2023/03/27 08:56:41;;;;;;;13.25;5.55;;;3.40;77.40;;;;;;5021344;28;46437;-65
2023/03/27 08:59:17;;;;;;;8.77;4.30;;;3.40;77.20;;;;;;5020241;28;45962;-65
2023/03/27 09:01:59;;;;;;;11.87;4.97;;;3.50;76.90;;;;;;5020884;28;46705;-65
2023/03/27 09:04:38;;;;;;;22.00;5.40;;;3.60;76.50;;;;;;5020320;28;47255;-65
2023/03/27 09:07:10;;;;;;;22.00;11.52;;;3.70;76.10;;;;;;5020719;28;46006;-66
2023/03/27 09:10:01;;;;;;;23.05;5.63;;;3.80;75.80;;;;;;5021290;28;46482;-66
2023/03/27 09:12:33;;;;;;;11.77;5.10;;;4.10;75.40;;;;;;5020766;28;46621;-67
2023/03/27 09:15:24;;;;;;;8.53;3.80;;;4.20;74.70;;;;;;5020708;28;46529;-66
2023/03/27 09:17:57;;;;;;;21.23;4.13;;;4.10;74.00;;;;;;5020357;28;46554;-65
2023/03/27 09:20:33;;;;;;;11.70;3.58;;;4.00;74.20;;;;;;5021625;28;46643;-66
2023/03/27 09:23:14;;;;;;;10.83;4.40;;;4.20;73.30;;;;;;5021811;28;46477;-64
2023/03/27 09:25:45;;;;;;;9.73;4.00;;;4.40;73.10;;;;;;5018238;28;46488;-66
2023/03/27 09:28:22;;;;;;;13.20;3.55;;;4.60;73.40;;;;;;5018387;28;46532;-66
2023/03/27 09:30:48;;;;;;;10.87;3.80;;;4.50;72.70;;;;;;5020631;28;46548;-66
2023/03/27 09:33:13;;;;;;;19.30;3.80;;;4.50;73.10;;;;;;5021333;28;46395;-66
2023/03/27 09:35:39;;;;;;;7.37;3.70;;;4.60;72.80;;;;;;5020391;28;47032;-65
2023/03/27 09:38:24;;;;;;;16.83;3.97;;;4.60;72.30;;;;;;5020291;28;46481;-63
2023/03/27 09:41:01;;;;;;;8.83;3.23;;;4.50;71.80;;;;;;5021512;28;46437;-64
2023/03/27 09:43:44;;;;;;;10.70;3.53;;;4.50;71.50;;;;;;5022175;28;45812;-65
2023/03/27 09:46:16;;;;;;;8.43;3.37;;;4.60;70.80;;;;;;5022512;28;46928;-67
2023/03/27 09:48:53;;;;;;;13.07;3.17;;;4.70;70.00;;;;;;5021719;28;46548;-65
2023/03/27 09:51:37;;;;;;;7.70;3.27;;;4.70;69.90;;;;;;5021300;28;46454;-65
2023/03/27 09:54:03;;;;;;;6.60;3.07;;;4.60;68.70;;;;;;5020988;28;46513;-65
2023/03/27 09:56:29;;;;;;;14.77;3.23;;;4.50;67.60;;;;;;5022855;28;46498;-65
2023/03/27 09:58:59;;;;;;;6.53;2.73;;;4.60;67.10;;;;;;5020318;28;45919;-66
2023/03/27 10:01:33;;;;;;;13.67;3.50;;;4.60;67.20;;;;;;5023342;28;45863;-63
2023/03/27 10:03:59;;;;;;;7.93;3.27;;;4.50;67.70;;;;;;5024045;28;46673;-64
2023/03/27 10:06:30;;;;;;;6.97;2.93;;;4.50;68.00;;;;;;5019273;28;46759;-64
2023/03/27 10:08:59;;;;;;;11.27;3.13;;;4.40;67.80;;;;;;5019553;28;45907;-64
2023/03/27 10:11:30;;;;;;;10.70;3.70;;;4.50;67.80;;;;;;5019490;28;46531;-65
2023/03/27 10:13:58;;;;;;;5.77;2.90;;;4.90;67.20;;;;;;5019710;28;46511;-65
2023/03/27 10:16:26;;;;;;;11.20;3.17;;;5.40;66.30;;;;;;5017416;28;46556;-65
2023/03/27 10:18:56;;;;;;;6.85;2.90;;;5.70;65.00;;;;;;5019496;28;45876;-64
2023/03/27 10:21:28;;;;;;;8.30;2.70;;;5.90;64.50;;;;;;5018216;28;46777;-65
2023/03/27 10:24:33;;;;;;;6.73;2.97;;;6.00;63.40;;;;;;5019697;28;46709;-64
2023/03/27 10:27:00;;;;;;;15.20;3.37;;;6.00;63.10;;;;;;5017784;28;47188;-65
2023/03/27 10:29:36;;;;;;;8.53;2.90;;;6.00;62.00;;;;;;5019823;28;46472;-64
2023/03/27 10:32:04;;;;;;;15.63;3.93;;;5.80;62.40;;;;;;5020293;28;46535;-64
2023/03/27 10:34:31;;;;;;;8.63;2.90;;;5.90;63.20;;;;;;5019166;28;46720;-64
2023/03/27 10:37:00;;;;;;;7.00;3.27;;;6.00;63.50;;;;;;5018257;28;47744;-63
2023/03/27 10:39:28;;;;;;;7.87;2.30;;;5.90;63.40;;;;;;5019699;28;46518;-64
2023/03/27 10:41:55;;;;;;;9.30;3.20;;;5.90;62.90;;;;;;5019591;28;46540;-63
2023/03/27 10:44:24;;;;;;;9.00;2.60;;;5.60;62.80;;;;;;5023008;28;46615;-66
2023/03/27 10:46:51;;;;;;;6.90;2.70;;;5.60;63.00;;;;;;5019891;28;46630;-66
2023/03/27 10:49:35;;;;;;;12.93;2.83;;;5.70;62.90;;;;;;5019460;28;46493;-66
2023/03/27 10:52:16;;;;;;;7.60;2.63;;;5.90;62.50;;;;;;5019406;28;46496;-66
2023/03/27 10:54:50;;;;;;;14.50;2.97;;;6.30;62.20;;;;;;5020001;28;46447;-66
2023/03/27 10:57:29;;;;;;;12.23;2.67;;;6.60;61.50;;;;;;5018853;28;47054;-66
2023/03/27 11:00:36;;;;;;;9.50;2.70;;;6.80;60.70;;;;;;5019237;28;46519;-65
2023/03/27 11:03:22;;;;;;;8.10;2.13;;;6.70;59.30;;;;;;5018417;28;46681;-65
2023/03/27 11:05:52;;;;;;;11.93;2.70;;;6.70;57.50;;;;;;5019708;28;45901;-62
2023/03/27 11:08:27;;;;;;;5.53;2.10;;;6.70;57.30;;;;;;5018229;28;46474;-65
2023/03/27 11:10:59;;;;;;;7.00;1.97;;;6.90;56.10;;;;;;5018365;28;46512;-66
2023/03/27 11:13:37;;;;;;;8.77;2.60;;;7.10;55.60;;;;;;5019466;28;46936;-65
2023/03/27 11:16:22;;;;;;;7.03;2.13;;;7.40;51.80;;;;;;5018654;28;46651;-65
2023/03/27 11:19:11;;;;;;;8.17;2.27;;;7.80;51.80;;;;;;5019467;28;46241;-65
2023/03/27 11:21:46;;;;;;;11.87;2.70;;;7.90;51.00;;;;;;5021356;28;46849;-66
2023/03/27 11:24:32;;;;;;;4.20;1.70;;;7.40;50.40;;;;;;5022749;28;46509;-66
2023/03/27 11:27:11;;;;;;;6.77;2.07;;;7.10;50.20;;;;;;5018029;28;46509;-66
2023/03/27 11:29:45;;;;;;;4.73;2.13;;;7.20;50.30;;;;;;5017412;28;47207;-66
2023/03/27 11:32:34;;;;;;;8.93;2.23;;;7.10;50.10;;;;;;5017912;28;46686;-65
2023/03/27 11:35:07;;;;;;;10.50;2.47;;;6.90;49.90;;;;;;5019408;28;46528;-63
2023/03/27 11:37:58;;;;;;;6.40;2.40;;;6.60;49.70;;;;;;5019101;28;46532;-65
2023/03/27 11:40:41;;;;;;;3.80;1.83;;;6.20;49.40;;;;;;5018966;28;46692;-65
2023/03/27 11:43:10;;;;;;;6.40;1.87;;;6.30;50.20;;;;;;5018908;28;46312;-66
2023/03/27 11:45:43;;;;;;;3.53;1.80;;;6.50;50.60;;;;;;5018283;28;46701;-64
2023/03/27 11:48:47;;;;;;;9.13;2.40;;;6.70;49.80;;;;;;5017979;28;46996;-64
2023/03/27 11:51:22;;;;;;;5.53;1.50;;;6.90;50.00;;;;;;5018683;28;46357;-64
2023/03/27 11:53:59;;;;;;;4.67;1.90;;;7.20;47.90;;;;;;5018574;28;46475;-66
2023/03/27 11:56:40;;;;;;;6.83;1.80;;;7.10;46.20;;;;;;5018611;28;46777;-66
2023/03/27 11:59:06;;;;;;;8.57;2.23;;;6.90;45.70;;;;;;5019197;28;46491;-64
2023/03/27 12:01:59;;;;;;;8.57;2.50;;;6.70;46.90;;;;;;5019118;28;47323;-68
2023/03/27 12:04:44;;;;;;;6.80;1.50;;;6.60;46.70;;;;;;5018609;28;46499;-67
2023/03/27 12:07:58;;;;;;;7.90;1.67;;;6.30;45.00;;;;;;5018179;28;46489;-67
2023/03/27 12:10:27;;;;;;;7.03;1.40;;;6.30;44.60;;;;;;5016146;28;46305;-66
2023/03/27 12:13:20;;;;;;;5.40;1.70;;;6.50;44.60;;;;;;5018799;28;46080;-66
2023/03/27 12:16:14;;;;;;;6.67;1.60;;;7.00;43.30;;;;;;5020083;28;46472;-66
2023/03/27 12:19:12;;;;;;;2.57;1.60;;;7.50;41.80;;;;;;5021488;28;46537;-65
2023/03/27 12:22:00;;;;;;;6.63;1.33;;;7.70;40.20;;;;;;5018921;28;46628;-66
2023/03/27 12:24:35;;;;;;;9.27;1.20;;;7.70;38.80;;;;;;5019410;28;46198;-65
2023/03/27 12:27:18;;;;;;;3.37;1.20;;;7.40;37.20;;;;;;5017895;28;47255;-64
2023/03/27 12:30:11;;;;;;;6.73;1.43;;;7.50;38.20;;;;;;5019316;28;46504;-66
2023/03/27 12:32:43;;;;;;;2.23;1.00;;;7.20;37.00;;;;;;5017844;28;46439;-65
2023/03/27 12:35:21;;;;;;;3.50;1.60;;;6.90;36.80;;;;;;5017014;28;46496;-64
2023/03/27 12:38:01;;;;;;;3.40;1.40;;;6.90;38.40;;;;;;5017859;28;45903;-65
2023/03/27 12:40:31;;;;;;;2.73;1.30;;;7.40;37.20;;;;;;5021106;28;46451;-65
2023/03/27 12:43:22;;;;;;;4.87;1.10;;;7.90;37.50;;;;;;5021430;28;46626;-65
2023/03/27 12:46:18;;;;;;;9.00;1.80;;;7.70;37.40;;;;;;5021589;28;47139;-65
2023/03/27 12:48:49;;;;;;;4.83;1.57;;;7.60;37.70;;;;;;5021817;28;46632;-66
2023/03/27 12:51:18;;;;;;;4.10;1.50;;;7.40;37.20;;;;;;5022009;28;46681;-66
2023/03/27 12:53:54;;;;;;;2.93;1.33;;;7.10;36.90;;;;;;5020741;28;46610;-65
2023/03/27 12:56:29;;;;;;;8.80;1.60;;;7.00;37.20;;;;;;5023061;28;46556;-66
2023/03/27 12:58:56;;;;;;;6.53;1.37;;;6.80;36.60;;;;;;5022272;28;46531;-66
2023/03/27 13:01:37;;;;;;;7.30;1.37;;;6.40;36.40;;;;;;5022206;28;46469;-65
2023/03/27 13:04:37;;;;;;;2.30;1.10;;;6.00;35.60;;;;;;5022563;28;46503;-65
2023/03/27 13:07:11;;;;;;;4.13;1.00;;;6.00;35.00;;;;;;5021455;28;47433;-65
2023/03/27 13:09:43;;;;;;;3.60;1.00;;;6.10;34.50;;;;;;5023181;28;46931;-65
2023/03/27 13:12:12;;;;;;;3.10;1.30;;;6.10;36.10;;;;;;5023327;28;45884;-65
2023/03/27 13:15:02;;;;;;;5.30;1.53;;;6.30;36.90;;;;;;5025008;28;46465;-65
2023/03/27 13:17:50;;;;;;;6.07;2.13;;;6.80;37.20;;;;;;5026409;28;46608;-63
2023/03/27 13:20:44;;;;;;;4.80;1.20;;;7.10;36.90;;;;;;5022220;28;46512;-64
2023/03/27 13:23:47;;;;;;;2.90;0.90;;;7.10;35.80;;;;;;5022575;28;46614;-63